sensor_id;sensor_type;location;lat;lon;timestamp;temperature;humidity
46490;DHT22;32204;49.160;8.580;2024-01-27T00:01:11;4.20;1.00
46490;DHT22;32204;49.160;8.580;2024-01-27T00:03:36;4.20;99.90
46490;DHT22;32204;49.160;8.580;2024-01-27T00:06:02;4.10;1.00
46490;DHT22;32204;49.160;8.580;2024-01-27T00:08:28;4.00;1.00
46490;DHT22;32204;49.160;8.580;2024-01-27T00:10:53;4.00;1.00
46490;DHT22;32204;49.160;8.580;2024-01-27T00:13:22;4.00;1.00
46490;DHT22;32204;49.160;8.580;2024-01-27T00:15:48;3.90;1.00
46490;DHT22;32204;49.160;8.580;2024-01-27T00:18:15;3.90;99.90
46490;DHT22;32204;49.160;8.580;2024-01-27T00:20:41;3.80;99.90
46490;DHT22;32204;49.160;8.580;2024-01-27T00:23:07;3.80;31.90
46490;DHT22;32204;49.160;8.580;2024-01-27T00:25:33;3.60;1.00
46490;DHT22;32204;49.160;8.580;2024-01-27T00:27:59;3.70;99.90
46490;DHT22;32204;49.160;8.580;2024-01-27T00:30:24;3.80;99.90
46490;DHT22;32204;49.160;8.580;2024-01-27T00:32:51;3.60;99.90
46490;DHT22;32204;49.160;8.580;2024-01-27T00:35:16;3.40;1.00
46490;DHT22;32204;49.160;8.580;2024-01-27T00:37:42;3.40;2.20
46490;DHT22;32204;49.160;8.580;2024-01-27T00:40:09;3.50;99.90
46490;DHT22;32204;49.160;8.580;2024-01-27T00:42:35;3.60;1.00
46490;DHT22;32204;49.160;8.580;2024-01-27T00:45:01;3.70;1.00
46490;DHT22;32204;49.160;8.580;2024-01-27T00:47:27;3.60;99.90
46490;DHT22;32204;49.160;8.580;2024-01-27T00:49:52;3.70;1.00
46490;DHT22;32204;49.160;8.580;2024-01-27T00:52:20;3.60;1.00
46490;DHT22;32204;49.160;8.580;2024-01-27T00:54:45;3.60;1.00
46490;DHT22;32204;49.160;8.580;2024-01-27T00:57:11;3.70;1.00
46490;DHT22;32204;49.160;8.580;2024-01-27T00:59:37;3.60;99.90
46490;DHT22;32204;49.160;8.580;2024-01-27T01:02:03;3.60;1.00
46490;DHT22;32204;49.160;8.580;2024-01-27T01:04:28;3.50;99.90
46490;DHT22;32204;49.160;8.580;2024-01-27T01:06:54;3.60;99.90
46490;DHT22;32204;49.160;8.580;2024-01-27T01:09:20;3.50;1.00
46490;DHT22;32204;49.160;8.580;2024-01-27T01:11:46;3.60;99.90
46490;DHT22;32204;49.160;8.580;2024-01-27T01:14:12;3.60;99.90
46490;DHT22;32204;49.160;8.580;2024-01-27T01:16:39;3.50;99.90
46490;DHT22;32204;49.160;8.580;2024-01-27T01:19:05;3.50;99.90
46490;DHT22;32204;49.160;8.580;2024-01-27T01:21:30;3.50;99.90
46490;DHT22;32204;49.160;8.580;2024-01-27T01:23:56;3.40;99.90
46490;DHT22;32204;49.160;8.580;2024-01-27T01:26:22;3.30;69.10
46490;DHT22;32204;49.160;8.580;2024-01-27T01:28:47;3.30;99.90
46490;DHT22;32204;49.160;8.580;2024-01-27T01:31:13;3.20;99.90
46490;DHT22;32204;49.160;8.580;2024-01-27T01:33:39;3.20;99.90
46490;DHT22;32204;49.160;8.580;2024-01-27T01:36:04;3.10;99.90
46490;DHT22;32204;49.160;8.580;2024-01-27T01:38:30;3.10;99.90
46490;DHT22;32204;49.160;8.580;2024-01-27T01:40:56;3.10;1.00
46490;DHT22;32204;49.160;8.580;2024-01-27T01:43:21;3.10;99.90
46490;DHT22;32204;49.160;8.580;2024-01-27T01:45:47;3.10;99.90
46490;DHT22;32204;49.160;8.580;2024-01-27T01:48:13;3.00;99.90
46490;DHT22;32204;49.160;8.580;2024-01-27T01:50:38;2.90;99.90
46490;DHT22;32204;49.160;8.580;2024-01-27T01:53:05;3.00;50.30
46490;DHT22;32204;49.160;8.580;2024-01-27T01:55:31;3.00;99.90
46490;DHT22;32204;49.160;8.580;2024-01-27T01:57:57;2.90;21.80
46490;DHT22;32204;49.160;8.580;2024-01-27T02:00:22;3.00;99.90
46490;DHT22;32204;49.160;8.580;2024-01-27T02:02:48;2.90;99.90
46490;DHT22;32204;49.160;8.580;2024-01-27T02:05:14;2.80;99.90
46490;DHT22;32204;49.160;8.580;2024-01-27T02:07:40;2.70;52.50
46490;DHT22;32204;49.160;8.580;2024-01-27T02:10:15;2.70;99.90
46490;DHT22;32204;49.160;8.580;2024-01-27T02:12:42;2.70;99.90
46490;DHT22;32204;49.160;8.580;2024-01-27T02:15:12;2.50;81.60
46490;DHT22;32204;49.160;8.580;2024-01-27T02:17:40;2.50;1.00
46490;DHT22;32204;49.160;8.580;2024-01-27T02:20:07;2.70;99.90
46490;DHT22;32204;49.160;8.580;2024-01-27T02:22:33;2.80;99.90
46490;DHT22;32204;49.160;8.580;2024-01-27T02:24:59;2.90;1.00
46490;DHT22;32204;49.160;8.580;2024-01-27T02:27:25;2.90;99.90
46490;DHT22;32204;49.160;8.580;2024-01-27T02:29:50;3.00;99.90
46490;DHT22;32204;49.160;8.580;2024-01-27T02:32:16;3.00;58.70
46490;DHT22;32204;49.160;8.580;2024-01-27T02:34:42;3.00;99.90
46490;DHT22;32204;49.160;8.580;2024-01-27T02:37:07;3.00;1.00
46490;DHT22;32204;49.160;8.580;2024-01-27T02:39:33;2.90;99.90
46490;DHT22;32204;49.160;8.580;2024-01-27T02:41:58;2.70;20.50
46490;DHT22;32204;49.160;8.580;2024-01-27T02:44:24;2.60;99.90
46490;DHT22;32204;49.160;8.580;2024-01-27T02:46:49;2.50;99.90
46490;DHT22;32204;49.160;8.580;2024-01-27T02:49:15;2.60;99.90
46490;DHT22;32204;49.160;8.580;2024-01-27T02:51:41;2.70;99.90
46490;DHT22;32204;49.160;8.580;2024-01-27T02:54:06;2.80;99.90
46490;DHT22;32204;49.160;8.580;2024-01-27T02:56:32;2.80;99.90
46490;DHT22;32204;49.160;8.580;2024-01-27T02:58:57;2.80;99.90
46490;DHT22;32204;49.160;8.580;2024-01-27T03:01:23;2.70;1.00
46490;DHT22;32204;49.160;8.580;2024-01-27T03:03:49;2.40;99.90
46490;DHT22;32204;49.160;8.580;2024-01-27T03:06:14;2.10;99.90
46490;DHT22;32204;49.160;8.580;2024-01-27T03:08:40;2.00;1.00
46490;DHT22;32204;49.160;8.580;2024-01-27T03:11:05;2.10;1.00
46490;DHT22;32204;49.160;8.580;2024-01-27T03:13:31;2.20;1.00
46490;DHT22;32204;49.160;8.580;2024-01-27T03:15:57;2.20;99.90
46490;DHT22;32204;49.160;8.580;2024-01-27T03:18:22;2.20;99.90
46490;DHT22;32204;49.160;8.580;2024-01-27T03:20:49;2.30;99.90
46490;DHT22;32204;49.160;8.580;2024-01-27T03:23:15;2.30;99.90
46490;DHT22;32204;49.160;8.580;2024-01-27T03:25:41;2.30;11.40
46490;DHT22;32204;49.160;8.580;2024-01-27T03:28:06;2.10;1.00
46490;DHT22;32204;49.160;8.580;2024-01-27T03:30:32;1.90;99.90
46490;DHT22;32204;49.160;8.580;2024-01-27T03:32:58;1.80;99.90
46490;DHT22;32204;49.160;8.580;2024-01-27T03:35:23;1.70;99.90
46490;DHT22;32204;49.160;8.580;2024-01-27T03:37:49;1.80;1.00
46490;DHT22;32204;49.160;8.580;2024-01-27T03:40:15;1.90;1.00
46490;DHT22;32204;49.160;8.580;2024-01-27T03:42:40;2.00;99.90
46490;DHT22;32204;49.160;8.580;2024-01-27T03:45:06;2.00;94.40
46490;DHT22;32204;49.160;8.580;2024-01-27T03:47:32;2.00;99.90
46490;DHT22;32204;49.160;8.580;2024-01-27T03:49:57;1.90;99.90
46490;DHT22;32204;49.160;8.580;2024-01-27T03:52:23;1.90;1.00
46490;DHT22;32204;49.160;8.580;2024-01-27T03:54:49;2.00;1.00
46490;DHT22;32204;49.160;8.580;2024-01-27T03:57:14;2.00;99.90
46490;DHT22;32204;49.160;8.580;2024-01-27T03:59:40;2.10;99.90
46490;DHT22;32204;49.160;8.580;2024-01-27T04:02:07;2.20;41.50
46490;DHT22;32204;49.160;8.580;2024-01-27T04:04:32;2.10;99.90
46490;DHT22;32204;49.160;8.580;2024-01-27T04:06:58;2.00;1.00
46490;DHT22;32204;49.160;8.580;2024-01-27T04:09:23;1.90;1.00
46490;DHT22;32204;49.160;8.580;2024-01-27T04:11:49;2.00;99.90
46490;DHT22;32204;49.160;8.580;2024-01-27T04:14:15;2.00;22.30
46490;DHT22;32204;49.160;8.580;2024-01-27T04:16:41;2.10;99.90
46490;DHT22;32204;49.160;8.580;2024-01-27T04:19:06;2.00;50.70
46490;DHT22;32204;49.160;8.580;2024-01-27T04:21:32;2.10;15.70
46490;DHT22;32204;49.160;8.580;2024-01-27T04:23:57;2.10;1.00
46490;DHT22;32204;49.160;8.580;2024-01-27T04:26:23;2.10;99.90
46490;DHT22;32204;49.160;8.580;2024-01-27T04:28:49;2.00;99.90
46490;DHT22;32204;49.160;8.580;2024-01-27T04:31:14;2.00;64.40
46490;DHT22;32204;49.160;8.580;2024-01-27T04:33:40;1.70;99.90
46490;DHT22;32204;49.160;8.580;2024-01-27T04:36:06;1.70;1.00
46490;DHT22;32204;49.160;8.580;2024-01-27T04:38:35;1.80;1.00
46490;DHT22;32204;49.160;8.580;2024-01-27T04:41:01;2.00;1.00
46490;DHT22;32204;49.160;8.580;2024-01-27T04:43:28;2.10;99.90
46490;DHT22;32204;49.160;8.580;2024-01-27T04:45:54;2.20;49.00
46490;DHT22;32204;49.160;8.580;2024-01-27T04:48:20;2.20;1.00
46490;DHT22;32204;49.160;8.580;2024-01-27T04:50:45;2.10;99.90
46490;DHT22;32204;49.160;8.580;2024-01-27T04:53:12;2.00;1.00
46490;DHT22;32204;49.160;8.580;2024-01-27T04:55:37;2.00;99.90
46490;DHT22;32204;49.160;8.580;2024-01-27T04:58:04;2.00;1.00
46490;DHT22;32204;49.160;8.580;2024-01-27T05:00:29;1.90;19.20
46490;DHT22;32204;49.160;8.580;2024-01-27T05:02:55;2.00;1.00
46490;DHT22;32204;49.160;8.580;2024-01-27T05:05:22;2.00;1.00
46490;DHT22;32204;49.160;8.580;2024-01-27T05:07:48;2.00;1.00
46490;DHT22;32204;49.160;8.580;2024-01-27T05:10:15;2.00;8.70
46490;DHT22;32204;49.160;8.580;2024-01-27T05:12:41;2.00;79.40
46490;DHT22;32204;49.160;8.580;2024-01-27T05:15:07;1.90;1.00
46490;DHT22;32204;49.160;8.580;2024-01-27T05:17:33;1.80;99.90
46490;DHT22;32204;49.160;8.580;2024-01-27T05:19:59;1.80;99.90
46490;DHT22;32204;49.160;8.580;2024-01-27T05:22:25;1.80;99.90
46490;DHT22;32204;49.160;8.580;2024-01-27T05:24:50;1.80;99.90
46490;DHT22;32204;49.160;8.580;2024-01-27T05:27:16;1.80;99.90
46490;DHT22;32204;49.160;8.580;2024-01-27T05:29:41;1.70;1.00
46490;DHT22;32204;49.160;8.580;2024-01-27T05:32:07;1.70;17.50
46490;DHT22;32204;49.160;8.580;2024-01-27T05:34:33;1.70;99.90
46490;DHT22;32204;49.160;8.580;2024-01-27T05:36:59;1.70;99.90
46490;DHT22;32204;49.160;8.580;2024-01-27T05:39:25;1.70;1.00
46490;DHT22;32204;49.160;8.580;2024-01-27T05:41:50;1.60;1.00
46490;DHT22;32204;49.160;8.580;2024-01-27T05:44:16;1.60;99.90
46490;DHT22;32204;49.160;8.580;2024-01-27T05:46:41;1.60;1.00
46490;DHT22;32204;49.160;8.580;2024-01-27T05:49:07;1.60;81.50
46490;DHT22;32204;49.160;8.580;2024-01-27T05:51:32;1.50;99.90
46490;DHT22;32204;49.160;8.580;2024-01-27T05:53:59;1.60;99.90
46490;DHT22;32204;49.160;8.580;2024-01-27T05:56:25;1.50;1.00
46490;DHT22;32204;49.160;8.580;2024-01-27T05:58:50;1.50;1.00
46490;DHT22;32204;49.160;8.580;2024-01-27T06:01:19;1.40;1.00
46490;DHT22;32204;49.160;8.580;2024-01-27T06:03:45;1.30;63.40
46490;DHT22;32204;49.160;8.580;2024-01-27T06:06:13;1.30;99.90
46490;DHT22;32204;49.160;8.580;2024-01-27T06:08:39;1.10;1.00
46490;DHT22;32204;49.160;8.580;2024-01-27T06:11:06;1.30;99.90
46490;DHT22;32204;49.160;8.580;2024-01-27T06:13:31;1.30;99.90
46490;DHT22;32204;49.160;8.580;2024-01-27T06:15:58;1.20;1.00
46490;DHT22;32204;49.160;8.580;2024-01-27T06:18:24;1.20;99.90
46490;DHT22;32204;49.160;8.580;2024-01-27T06:20:53;1.30;1.00
46490;DHT22;32204;49.160;8.580;2024-01-27T06:23:18;1.20;99.90
46490;DHT22;32204;49.160;8.580;2024-01-27T06:25:44;1.30;99.90
46490;DHT22;32204;49.160;8.580;2024-01-27T06:28:09;1.20;99.90
46490;DHT22;32204;49.160;8.580;2024-01-27T06:30:35;1.20;99.90
46490;DHT22;32204;49.160;8.580;2024-01-27T06:33:01;1.10;99.90
46490;DHT22;32204;49.160;8.580;2024-01-27T06:35:26;1.20;99.90
46490;DHT22;32204;49.160;8.580;2024-01-27T06:37:52;1.20;1.00
46490;DHT22;32204;49.160;8.580;2024-01-27T06:40:17;1.30;99.90
46490;DHT22;32204;49.160;8.580;2024-01-27T06:42:43;1.40;87.00
46490;DHT22;32204;49.160;8.580;2024-01-27T06:45:09;1.40;1.00
46490;DHT22;32204;49.160;8.580;2024-01-27T06:47:35;1.30;1.00
46490;DHT22;32204;49.160;8.580;2024-01-27T06:50:00;1.30;99.90
46490;DHT22;32204;49.160;8.580;2024-01-27T06:52:26;1.30;1.00
46490;DHT22;32204;49.160;8.580;2024-01-27T06:54:52;1.30;1.00
46490;DHT22;32204;49.160;8.580;2024-01-27T06:57:22;1.40;1.00
46490;DHT22;32204;49.160;8.580;2024-01-27T06:59:48;1.30;1.00
46490;DHT22;32204;49.160;8.580;2024-01-27T07:02:28;1.30;1.00
46490;DHT22;32204;49.160;8.580;2024-01-27T07:04:54;1.30;83.80
46490;DHT22;32204;49.160;8.580;2024-01-27T07:07:26;1.30;99.90
46490;DHT22;32204;49.160;8.580;2024-01-27T07:09:52;1.30;11.60
46490;DHT22;32204;49.160;8.580;2024-01-27T07:12:18;1.30;99.90
46490;DHT22;32204;49.160;8.580;2024-01-27T07:14:43;1.30;99.90
46490;DHT22;32204;49.160;8.580;2024-01-27T07:17:09;1.20;99.90
46490;DHT22;32204;49.160;8.580;2024-01-27T07:19:34;1.10;91.10
46490;DHT22;32204;49.160;8.580;2024-01-27T07:22:00;1.30;1.00
46490;DHT22;32204;49.160;8.580;2024-01-27T07:24:26;1.30;99.90
46490;DHT22;32204;49.160;8.580;2024-01-27T07:26:52;1.20;99.90
46490;DHT22;32204;49.160;8.580;2024-01-27T07:29:18;1.20;99.90
46490;DHT22;32204;49.160;8.580;2024-01-27T07:31:43;1.30;1.00
46490;DHT22;32204;49.160;8.580;2024-01-27T07:34:09;1.30;99.90
46490;DHT22;32204;49.160;8.580;2024-01-27T07:36:35;1.40;1.00
46490;DHT22;32204;49.160;8.580;2024-01-27T07:39:00;1.40;99.90
46490;DHT22;32204;49.160;8.580;2024-01-27T07:41:26;1.50;82.10
46490;DHT22;32204;49.160;8.580;2024-01-27T07:43:54;1.50;99.90
46490;DHT22;32204;49.160;8.580;2024-01-27T07:46:19;1.60;99.90
46490;DHT22;32204;49.160;8.580;2024-01-27T07:48:48;1.60;1.00
46490;DHT22;32204;49.160;8.580;2024-01-27T07:51:13;1.60;99.90
46490;DHT22;32204;49.160;8.580;2024-01-27T07:53:39;1.50;27.50
46490;DHT22;32204;49.160;8.580;2024-01-27T07:56:05;1.60;99.90
46490;DHT22;32204;49.160;8.580;2024-01-27T07:58:31;1.70;1.00
46490;DHT22;32204;49.160;8.580;2024-01-27T08:00:57;1.80;1.00
46490;DHT22;32204;49.160;8.580;2024-01-27T08:03:23;1.90;99.90
46490;DHT22;32204;49.160;8.580;2024-01-27T08:05:49;1.90;99.90
46490;DHT22;32204;49.160;8.580;2024-01-27T08:08:14;1.90;99.90
46490;DHT22;32204;49.160;8.580;2024-01-27T08:10:40;1.90;99.90
46490;DHT22;32204;49.160;8.580;2024-01-27T08:13:05;1.90;1.00
46490;DHT22;32204;49.160;8.580;2024-01-27T08:15:35;1.90;7.00
46490;DHT22;32204;49.160;8.580;2024-01-27T08:18:01;1.90;99.90
46490;DHT22;32204;49.160;8.580;2024-01-27T08:20:26;2.00;99.90
46490;DHT22;32204;49.160;8.580;2024-01-27T08:22:52;2.10;99.90
46490;DHT22;32204;49.160;8.580;2024-01-27T08:25:18;2.00;99.90
46490;DHT22;32204;49.160;8.580;2024-01-27T08:27:43;2.10;99.90
46490;DHT22;32204;49.160;8.580;2024-01-27T08:30:09;2.20;85.20
46490;DHT22;32204;49.160;8.580;2024-01-27T08:32:36;2.10;99.90
46490;DHT22;32204;49.160;8.580;2024-01-27T08:35:01;2.10;99.90
46490;DHT22;32204;49.160;8.580;2024-01-27T08:37:27;2.10;1.00
46490;DHT22;32204;49.160;8.580;2024-01-27T08:39:53;2.30;1.00
46490;DHT22;32204;49.160;8.580;2024-01-27T08:42:18;2.40;99.90
46490;DHT22;32204;49.160;8.580;2024-01-27T08:44:44;2.50;99.90
46490;DHT22;32204;49.160;8.580;2024-01-27T08:47:10;2.40;1.00
46490;DHT22;32204;49.160;8.580;2024-01-27T08:49:35;2.50;1.00
46490;DHT22;32204;49.160;8.580;2024-01-27T08:52:01;2.60;1.00
46490;DHT22;32204;49.160;8.580;2024-01-27T08:54:27;2.60;1.00
46490;DHT22;32204;49.160;8.580;2024-01-27T08:56:52;2.60;1.00
46490;DHT22;32204;49.160;8.580;2024-01-27T08:59:18;2.50;1.00
46490;DHT22;32204;49.160;8.580;2024-01-27T09:01:43;2.50;1.00
46490;DHT22;32204;49.160;8.580;2024-01-27T09:04:09;2.50;15.30
46490;DHT22;32204;49.160;8.580;2024-01-27T09:06:35;2.60;3.10
46490;DHT22;32204;49.160;8.580;2024-01-27T09:09:00;2.80;20.80
46490;DHT22;32204;49.160;8.580;2024-01-27T09:11:26;2.90;1.00
46490;DHT22;32204;49.160;8.580;2024-01-27T09:13:56;2.90;1.00
46490;DHT22;32204;49.160;8.580;2024-01-27T09:16:22;3.10;1.00
46490;DHT22;32204;49.160;8.580;2024-01-27T09:18:48;3.30;1.00
46490;DHT22;32204;49.160;8.580;2024-01-27T09:21:15;3.40;99.90
46490;DHT22;32204;49.160;8.580;2024-01-27T09:23:49;3.60;99.90
46490;DHT22;32204;49.160;8.580;2024-01-27T09:26:14;3.60;91.50
46490;DHT22;32204;49.160;8.580;2024-01-27T09:28:43;3.70;99.90
46490;DHT22;32204;49.160;8.580;2024-01-27T09:31:11;3.80;10.00
46490;DHT22;32204;49.160;8.580;2024-01-27T09:33:37;3.90;1.00
46490;DHT22;32204;49.160;8.580;2024-01-27T09:36:02;4.00;99.90
46490;DHT22;32204;49.160;8.580;2024-01-27T09:38:29;4.10;99.90
46490;DHT22;32204;49.160;8.580;2024-01-27T09:40:54;4.10;99.90
46490;DHT22;32204;49.160;8.580;2024-01-27T09:43:21;4.20;1.00
46490;DHT22;32204;49.160;8.580;2024-01-27T09:45:49;4.10;1.00
46490;DHT22;32204;49.160;8.580;2024-01-27T09:48:15;4.10;99.90
46490;DHT22;32204;49.160;8.580;2024-01-27T09:50:41;4.00;99.90
46490;DHT22;32204;49.160;8.580;2024-01-27T09:53:07;4.10;99.90
46490;DHT22;32204;49.160;8.580;2024-01-27T09:55:34;4.10;99.90
46490;DHT22;32204;49.160;8.580;2024-01-27T09:58:00;4.20;1.00
46490;DHT22;32204;49.160;8.580;2024-01-27T10:00:27;4.20;53.80
46490;DHT22;32204;49.160;8.580;2024-01-27T10:02:54;4.20;1.00
46490;DHT22;32204;49.160;8.580;2024-01-27T10:05:21;4.20;1.00
46490;DHT22;32204;49.160;8.580;2024-01-27T10:07:47;4.20;99.90
46490;DHT22;32204;49.160;8.580;2024-01-27T10:10:13;4.30;99.90
46490;DHT22;32204;49.160;8.580;2024-01-27T10:12:42;4.40;99.90
46490;DHT22;32204;49.160;8.580;2024-01-27T10:15:28;4.50;99.90
46490;DHT22;32204;49.160;8.580;2024-01-27T10:18:07;4.60;99.90
46490;DHT22;32204;49.160;8.580;2024-01-27T10:20:33;4.70;99.90
46490;DHT22;32204;49.160;8.580;2024-01-27T10:23:09;4.80;1.00
46490;DHT22;32204;49.160;8.580;2024-01-27T10:25:39;4.70;1.00
46490;DHT22;32204;49.160;8.580;2024-01-27T10:28:07;4.80;1.00
46490;DHT22;32204;49.160;8.580;2024-01-27T10:30:36;4.90;1.00
46490;DHT22;32204;49.160;8.580;2024-01-27T10:33:02;4.90;48.00
46490;DHT22;32204;49.160;8.580;2024-01-27T10:35:28;5.00;1.00
46490;DHT22;32204;49.160;8.580;2024-01-27T10:37:55;5.00;91.30
46490;DHT22;32204;49.160;8.580;2024-01-27T10:40:22;5.00;99.90
46490;DHT22;32204;49.160;8.580;2024-01-27T10:43:10;5.00;99.90
46490;DHT22;32204;49.160;8.580;2024-01-27T10:45:37;5.10;99.90
46490;DHT22;32204;49.160;8.580;2024-01-27T10:48:04;5.20;1.00
46490;DHT22;32204;49.160;8.580;2024-01-27T10:50:38;5.30;99.90
46490;DHT22;32204;49.160;8.580;2024-01-27T10:53:10;5.40;99.90
46490;DHT22;32204;49.160;8.580;2024-01-27T10:55:42;5.50;1.00
46490;DHT22;32204;49.160;8.580;2024-01-27T10:58:09;5.50;1.00
46490;DHT22;32204;49.160;8.580;2024-01-27T11:00:36;5.60;99.90
46490;DHT22;32204;49.160;8.580;2024-01-27T11:03:02;5.60;40.40
46490;DHT22;32204;49.160;8.580;2024-01-27T11:05:31;5.60;99.90
46490;DHT22;32204;49.160;8.580;2024-01-27T11:07:59;5.80;99.90
46490;DHT22;32204;49.160;8.580;2024-01-27T11:10:25;5.80;99.90
46490;DHT22;32204;49.160;8.580;2024-01-27T11:12:52;5.80;99.90
46490;DHT22;32204;49.160;8.580;2024-01-27T11:15:21;6.00;99.90
46490;DHT22;32204;49.160;8.580;2024-01-27T11:17:47;6.10;1.00
46490;DHT22;32204;49.160;8.580;2024-01-27T11:20:13;6.20;1.00
46490;DHT22;32204;49.160;8.580;2024-01-27T11:22:41;6.40;99.90
46490;DHT22;32204;49.160;8.580;2024-01-27T11:27:39;6.50;99.90
46490;DHT22;32204;49.160;8.580;2024-01-27T11:30:06;6.60;99.90
46490;DHT22;32204;49.160;8.580;2024-01-27T11:32:32;6.60;99.90
46490;DHT22;32204;49.160;8.580;2024-01-27T11:35:01;6.80;99.90
46490;DHT22;32204;49.160;8.580;2024-01-27T11:37:30;6.90;52.20
46490;DHT22;32204;49.160;8.580;2024-01-27T11:40:05;7.00;1.00
46490;DHT22;32204;49.160;8.580;2024-01-27T11:42:34;7.00;99.90
46490;DHT22;32204;49.160;8.580;2024-01-27T11:45:00;7.20;1.00
46490;DHT22;32204;49.160;8.580;2024-01-27T11:47:27;7.20;1.00
46490;DHT22;32204;49.160;8.580;2024-01-27T11:49:54;7.30;99.90
46490;DHT22;32204;49.160;8.580;2024-01-27T11:52:21;7.30;1.00
46490;DHT22;32204;49.160;8.580;2024-01-27T11:54:57;7.20;99.90
46490;DHT22;32204;49.160;8.580;2024-01-27T11:57:23;7.10;99.90
46490;DHT22;32204;49.160;8.580;2024-01-27T11:59:50;7.30;99.90
46490;DHT22;32204;49.160;8.580;2024-01-27T12:02:15;7.40;99.90
46490;DHT22;32204;49.160;8.580;2024-01-27T12:04:41;7.40;66.50
46490;DHT22;32204;49.160;8.580;2024-01-27T12:07:07;7.60;99.90
46490;DHT22;32204;49.160;8.580;2024-01-27T12:09:33;7.60;1.00
46490;DHT22;32204;49.160;8.580;2024-01-27T12:11:58;7.60;1.00
46490;DHT22;32204;49.160;8.580;2024-01-27T12:14:24;7.70;1.00
46490;DHT22;32204;49.160;8.580;2024-01-27T12:16:51;7.70;99.90
46490;DHT22;32204;49.160;8.580;2024-01-27T12:19:18;7.70;99.90
46490;DHT22;32204;49.160;8.580;2024-01-27T12:21:48;7.80;99.90
46490;DHT22;32204;49.160;8.580;2024-01-27T12:24:17;7.80;1.00
46490;DHT22;32204;49.160;8.580;2024-01-27T12:26:44;7.90;1.00
46490;DHT22;32204;49.160;8.580;2024-01-27T12:29:10;8.00;7.80
46490;DHT22;32204;49.160;8.580;2024-01-27T12:31:36;8.20;1.00
46490;DHT22;32204;49.160;8.580;2024-01-27T12:34:02;8.10;99.90
46490;DHT22;32204;49.160;8.580;2024-01-27T12:36:28;8.10;99.90
46490;DHT22;32204;49.160;8.580;2024-01-27T12:38:59;8.10;99.90
46490;DHT22;32204;49.160;8.580;2024-01-27T12:41:26;8.20;99.90
46490;DHT22;32204;49.160;8.580;2024-01-27T12:43:52;8.20;99.90
46490;DHT22;32204;49.160;8.580;2024-01-27T12:46:18;8.40;5.80
46490;DHT22;32204;49.160;8.580;2024-01-27T12:48:45;8.30;1.00
46490;DHT22;32204;49.160;8.580;2024-01-27T12:51:11;8.30;1.00
46490;DHT22;32204;49.160;8.580;2024-01-27T12:53:38;8.30;1.00
46490;DHT22;32204;49.160;8.580;2024-01-27T12:56:04;8.30;1.00
46490;DHT22;32204;49.160;8.580;2024-01-27T12:58:30;8.30;1.00
46490;DHT22;32204;49.160;8.580;2024-01-27T13:00:55;8.30;1.00
46490;DHT22;32204;49.160;8.580;2024-01-27T13:03:21;8.40;1.00
46490;DHT22;32204;49.160;8.580;2024-01-27T13:05:46;8.50;1.00
46490;DHT22;32204;49.160;8.580;2024-01-27T13:08:13;8.40;1.00
46490;DHT22;32204;49.160;8.580;2024-01-27T13:10:39;8.40;1.00
46490;DHT22;32204;49.160;8.580;2024-01-27T13:13:04;8.40;1.00
46490;DHT22;32204;49.160;8.580;2024-01-27T13:15:30;8.50;1.00
46490;DHT22;32204;49.160;8.580;2024-01-27T13:17:55;8.50;1.00
46490;DHT22;32204;49.160;8.580;2024-01-27T13:20:21;8.60;1.00
46490;DHT22;32204;49.160;8.580;2024-01-27T13:22:47;8.60;1.00
46490;DHT22;32204;49.160;8.580;2024-01-27T13:25:12;8.60;99.90
46490;DHT22;32204;49.160;8.580;2024-01-27T13:27:38;8.60;99.90
46490;DHT22;32204;49.160;8.580;2024-01-27T13:30:04;8.60;99.90
46490;DHT22;32204;49.160;8.580;2024-01-27T13:32:30;8.60;99.90
46490;DHT22;32204;49.160;8.580;2024-01-27T13:34:56;8.60;99.90
46490;DHT22;32204;49.160;8.580;2024-01-27T13:37:21;8.60;99.90
46490;DHT22;32204;49.160;8.580;2024-01-27T13:39:47;8.70;99.90
46490;DHT22;32204;49.160;8.580;2024-01-27T13:42:13;8.70;99.90
46490;DHT22;32204;49.160;8.580;2024-01-27T13:44:39;8.70;99.90
46490;DHT22;32204;49.160;8.580;2024-01-27T13:47:05;8.70;99.90
46490;DHT22;32204;49.160;8.580;2024-01-27T13:49:34;8.70;99.90
46490;DHT22;32204;49.160;8.580;2024-01-27T13:51:59;8.70;99.90
46490;DHT22;32204;49.160;8.580;2024-01-27T13:54:25;8.80;99.90
46490;DHT22;32204;49.160;8.580;2024-01-27T13:56:51;8.80;99.90
46490;DHT22;32204;49.160;8.580;2024-01-27T13:59:17;8.80;99.90
46490;DHT22;32204;49.160;8.580;2024-01-27T14:01:42;8.90;99.90
46490;DHT22;32204;49.160;8.580;2024-01-27T14:04:08;9.00;99.90
46490;DHT22;32204;49.160;8.580;2024-01-27T14:06:34;9.00;99.90
46490;DHT22;32204;49.160;8.580;2024-01-27T14:09:00;9.00;99.90
46490;DHT22;32204;49.160;8.580;2024-01-27T14:11:27;9.10;99.90
46490;DHT22;32204;49.160;8.580;2024-01-27T14:13:53;9.10;99.90
46490;DHT22;32204;49.160;8.580;2024-01-27T14:16:19;9.10;99.90
46490;DHT22;32204;49.160;8.580;2024-01-27T14:18:45;9.10;99.90
46490;DHT22;32204;49.160;8.580;2024-01-27T14:21:11;9.10;99.90
46490;DHT22;32204;49.160;8.580;2024-01-27T14:23:37;9.10;99.90
46490;DHT22;32204;49.160;8.580;2024-01-27T14:26:03;9.10;99.90
46490;DHT22;32204;49.160;8.580;2024-01-27T14:28:29;9.10;99.90
46490;DHT22;32204;49.160;8.580;2024-01-27T14:30:55;9.00;99.90
46490;DHT22;32204;49.160;8.580;2024-01-27T14:33:20;9.10;99.90
46490;DHT22;32204;49.160;8.580;2024-01-27T14:35:47;9.10;99.90
46490;DHT22;32204;49.160;8.580;2024-01-27T14:38:15;9.20;99.90
46490;DHT22;32204;49.160;8.580;2024-01-27T14:40:41;9.20;99.90
46490;DHT22;32204;49.160;8.580;2024-01-27T14:43:07;9.10;99.90
46490;DHT22;32204;49.160;8.580;2024-01-27T14:45:38;9.10;99.90
46490;DHT22;32204;49.160;8.580;2024-01-27T14:48:04;9.10;99.90
46490;DHT22;32204;49.160;8.580;2024-01-27T14:50:30;9.10;99.90
46490;DHT22;32204;49.160;8.580;2024-01-27T14:52:56;9.10;99.90
46490;DHT22;32204;49.160;8.580;2024-01-27T14:55:22;9.10;99.90
46490;DHT22;32204;49.160;8.580;2024-01-27T14:57:47;9.00;99.90
46490;DHT22;32204;49.160;8.580;2024-01-27T15:00:13;9.00;99.90
46490;DHT22;32204;49.160;8.580;2024-01-27T15:02:41;9.00;99.90
46490;DHT22;32204;49.160;8.580;2024-01-27T15:05:07;8.90;99.90
46490;DHT22;32204;49.160;8.580;2024-01-27T15:07:34;8.90;99.90
46490;DHT22;32204;49.160;8.580;2024-01-27T15:10:00;8.90;99.90
46490;DHT22;32204;49.160;8.580;2024-01-27T15:12:25;8.90;99.90
46490;DHT22;32204;49.160;8.580;2024-01-27T15:14:51;8.80;99.90
46490;DHT22;32204;49.160;8.580;2024-01-27T15:17:18;8.80;99.90
46490;DHT22;32204;49.160;8.580;2024-01-27T15:19:44;8.80;99.90
46490;DHT22;32204;49.160;8.580;2024-01-27T15:22:09;8.70;99.90
46490;DHT22;32204;49.160;8.580;2024-01-27T15:24:35;8.60;99.90
46490;DHT22;32204;49.160;8.580;2024-01-27T15:27:02;8.50;99.90
46490;DHT22;32204;49.160;8.580;2024-01-27T15:29:28;8.50;99.90
46490;DHT22;32204;49.160;8.580;2024-01-27T15:31:54;8.50;99.90
46490;DHT22;32204;49.160;8.580;2024-01-27T15:34:19;8.50;99.90
46490;DHT22;32204;49.160;8.580;2024-01-27T15:36:45;8.30;99.90
46490;DHT22;32204;49.160;8.580;2024-01-27T15:39:11;8.20;99.90
46490;DHT22;32204;49.160;8.580;2024-01-27T15:41:36;8.20;99.90
46490;DHT22;32204;49.160;8.580;2024-01-27T15:44:02;8.10;99.90
46490;DHT22;32204;49.160;8.580;2024-01-27T15:46:29;8.00;99.90
46490;DHT22;32204;49.160;8.580;2024-01-27T15:48:55;8.00;99.90